Terminal Aerodrome Forecast
Issued by NWS

Home | Current Version | Previous Version | Graphics & Text | Print | Product List | Glossary On
Versions: 1 2 3 4 5 6 7 8 9 10 11 12 13 14 15
000
FTUS43 KICT 061136
TAFHUT
TAF
KHUT 061136Z 0612/0712 35012KT P6SM BKN250
     FM062000 35007KT P6SM SCT250
     FM062300 VRB05KT P6SM BKN250
     FM070200 VRB05KT P6SM BKN100=

USA.gov is the U.S. government's official web portal to all federal, state and local government web resources and services.